createdAt,value
2022-12-31T00:02:07.118Z,79.87
2022-12-31T00:04:34.731Z,79.90
2022-12-31T00:07:01.430Z,79.84
2022-12-31T00:09:28.106Z,79.85
2022-12-31T00:11:54.799Z,79.88
2022-12-31T00:14:21.448Z,79.88
2022-12-31T00:16:48.140Z,79.75
2022-12-31T00:19:14.837Z,79.75
2022-12-31T00:21:44.026Z,79.94
2022-12-31T00:24:12.446Z,79.93
2022-12-31T00:26:39.180Z,79.81
2022-12-31T00:29:06.381Z,79.80
2022-12-31T00:31:36.559Z,79.82
2022-12-31T00:34:03.630Z,79.89
2022-12-31T00:36:36.450Z,79.91
2022-12-31T00:39:05.762Z,80.03
2022-12-31T00:41:32.676Z,79.95
2022-12-31T00:44:00.273Z,79.77
2022-12-31T00:46:27.513Z,79.81
2022-12-31T00:48:54.222Z,79.84
2022-12-31T00:51:24.469Z,80.00
2022-12-31T00:53:51.220Z,79.79
2022-12-31T00:56:21.410Z,79.76
2022-12-31T00:58:48.550Z,79.91
2022-12-31T01:01:18.639Z,79.89
2022-12-31T01:03:47.004Z,80.03
2022-12-31T01:06:13.903Z,79.88
2022-12-31T01:08:40.809Z,80.15
2022-12-31T01:11:19.623Z,79.89
2022-12-31T01:14:02.018Z,79.91
2022-12-31T01:16:36.507Z,79.98
2022-12-31T01:19:06.505Z,80.01
2022-12-31T01:21:34.756Z,79.96
2022-12-31T01:24:01.614Z,79.94
2022-12-31T01:26:28.986Z,79.86
2022-12-31T01:28:55.907Z,79.98
2022-12-31T01:31:24.262Z,79.97
2022-12-31T01:33:52.329Z,80.01
2022-12-31T01:36:25.904Z,80.00
2022-12-31T01:38:55.260Z,80.04
2022-12-31T01:41:25.099Z,80.12
2022-12-31T01:44:11.093Z,80.03
2022-12-31T01:46:56.372Z,80.07
2022-12-31T01:49:55.765Z,80.28
2022-12-31T01:52:28.618Z,80.13
2022-12-31T01:55:08.291Z,80.07
2022-12-31T01:57:36.439Z,80.04
2022-12-31T02:00:04.950Z,80.33
2022-12-31T02:02:34.687Z,80.51
2022-12-31T02:05:05.655Z,80.30
2022-12-31T02:07:32.497Z,80.39
2022-12-31T02:10:00.086Z,80.23
2022-12-31T02:12:26.920Z,80.17
2022-12-31T02:14:54.667Z,80.04
2022-12-31T02:17:43.829Z,80.23
2022-12-31T02:20:26.497Z,80.20
2022-12-31T02:23:26.975Z,80.19
2022-12-31T02:26:11.381Z,80.27
2022-12-31T02:29:07.251Z,80.28
2022-12-31T02:31:50.141Z,80.32
2022-12-31T02:34:55.778Z,80.37
2022-12-31T02:37:25.037Z,80.23
2022-12-31T02:39:51.974Z,80.39
2022-12-31T02:42:18.832Z,80.34
2022-12-31T02:44:45.439Z,80.38
2022-12-31T02:47:22.562Z,80.18
2022-12-31T02:50:21.560Z,80.22
2022-12-31T02:53:06.568Z,80.42
2022-12-31T02:55:45.550Z,80.27
2022-12-31T02:58:55.603Z,80.32
2022-12-31T03:01:49.172Z,80.32
2022-12-31T03:04:32.813Z,80.38
2022-12-31T03:07:03.756Z,80.25
2022-12-31T03:09:30.244Z,80.21
2022-12-31T03:12:15.381Z,80.26
2022-12-31T03:14:41.910Z,80.26
2022-12-31T03:17:08.374Z,80.23
2022-12-31T03:19:53.631Z,80.30
2022-12-31T03:22:29.139Z,80.32
2022-12-31T03:25:22.299Z,80.28
2022-12-31T03:27:49.856Z,80.25
2022-12-31T03:30:18.568Z,80.35
2022-12-31T03:32:46.072Z,80.49
2022-12-31T03:35:14.480Z,80.27
2022-12-31T03:37:41.296Z,80.24
2022-12-31T03:40:11.517Z,80.49
2022-12-31T03:42:37.954Z,80.47
2022-12-31T03:45:05.125Z,80.57
2022-12-31T03:47:31.647Z,80.48
2022-12-31T03:49:58.112Z,80.49
2022-12-31T03:52:24.538Z,80.40
2022-12-31T03:54:50.938Z,80.64
2022-12-31T03:57:17.381Z,80.68
2022-12-31T03:59:44.212Z,80.67
2022-12-31T04:02:10.931Z,80.58
2022-12-31T04:04:37.709Z,80.78
2022-12-31T04:07:04.151Z,80.58
2022-12-31T04:09:30.541Z,80.78
2022-12-31T04:11:57.050Z,80.70
2022-12-31T04:14:23.497Z,80.58
2022-12-31T04:16:50.057Z,80.54
2022-12-31T04:19:16.488Z,80.62
2022-12-31T04:21:43.072Z,80.57
2022-12-31T04:24:09.855Z,80.47
2022-12-31T04:26:37.177Z,80.46
2022-12-31T04:29:03.686Z,80.21
2022-12-31T04:31:30.704Z,80.35
2022-12-31T04:33:57.152Z,80.55
2022-12-31T04:36:23.736Z,80.32
2022-12-31T04:38:50.169Z,80.49
2022-12-31T04:41:20.798Z,80.52
2022-12-31T04:43:58.135Z,80.29
2022-12-31T04:46:27.564Z,80.41
2022-12-31T04:48:54.587Z,80.49
2022-12-31T04:51:22.154Z,80.29
2022-12-31T04:53:49.259Z,80.33
2022-12-31T04:56:16.894Z,80.36
2022-12-31T04:58:44.216Z,80.33
2022-12-31T05:01:11.607Z,80.37
2022-12-31T05:03:38.371Z,80.19
2022-12-31T05:06:15.244Z,80.34
2022-12-31T05:08:42.324Z,80.45
2022-12-31T05:11:09.632Z,80.49
2022-12-31T05:13:36.627Z,80.26
2022-12-31T05:16:04.081Z,80.26
2022-12-31T05:18:31.536Z,80.36
2022-12-31T05:20:57.979Z,80.24
2022-12-31T05:23:24.830Z,80.68
2022-12-31T05:25:51.629Z,80.45
2022-12-31T05:28:18.381Z,80.51
2022-12-31T05:30:47.989Z,80.34
2022-12-31T05:37:48.715Z,80.39
2022-12-31T05:40:15.162Z,80.53
2022-12-31T05:42:41.610Z,80.45
2022-12-31T05:45:08.827Z,80.75
2022-12-31T05:47:35.254Z,80.76
2022-12-31T05:50:01.708Z,80.88
2022-12-31T05:52:28.218Z,80.65
2022-12-31T05:54:54.624Z,80.54
2022-12-31T05:57:21.065Z,80.57
2022-12-31T05:59:47.533Z,80.53
2022-12-31T06:02:14.033Z,80.36
2022-12-31T06:04:40.557Z,80.52
2022-12-31T06:07:07.020Z,80.40
2022-12-31T06:09:33.435Z,80.35
2022-12-31T06:11:59.872Z,80.46
2022-12-31T06:14:26.382Z,80.42
2022-12-31T06:16:52.887Z,80.31
2022-12-31T06:19:19.329Z,80.30
2022-12-31T06:21:45.757Z,80.48
2022-12-31T06:24:12.408Z,80.44
2022-12-31T06:26:38.904Z,80.29
2022-12-31T06:29:05.505Z,80.40
2022-12-31T06:31:32.260Z,80.28
2022-12-31T06:33:59.107Z,80.33
2022-12-31T06:36:26.995Z,80.31
2022-12-31T06:38:53.815Z,80.46
2022-12-31T06:41:20.517Z,80.43
2022-12-31T06:43:47.239Z,80.33
2022-12-31T06:46:16.516Z,80.28
2022-12-31T06:48:44.779Z,80.41
2022-12-31T06:51:17.852Z,80.29
2022-12-31T06:53:45.773Z,80.21
2022-12-31T06:56:21.366Z,80.22
2022-12-31T06:58:48.782Z,80.43
2022-12-31T07:01:34.614Z,80.22
2022-12-31T07:04:21.112Z,80.09
2022-12-31T07:06:59.778Z,80.25
2022-12-31T07:09:29.408Z,80.21
2022-12-31T07:12:13.831Z,80.21
2022-12-31T07:14:43.866Z,80.29
2022-12-31T07:17:47.439Z,80.12
2022-12-31T07:20:17.370Z,80.15
2022-12-31T07:22:45.216Z,80.37
2022-12-31T07:25:16.642Z,80.25
2022-12-31T07:28:14.241Z,80.23
2022-12-31T07:31:05.610Z,80.17
2022-12-31T07:33:42.497Z,80.27
2022-12-31T07:36:36.210Z,80.14
2022-12-31T07:39:12.027Z,80.23
2022-12-31T07:41:52.379Z,80.35
2022-12-31T07:44:28.546Z,80.34
2022-12-31T07:46:57.441Z,80.43
2022-12-31T07:49:25.979Z,80.32
2022-12-31T07:51:53.082Z,80.41
2022-12-31T07:54:20.147Z,80.26
2022-12-31T07:56:49.148Z,80.31
2022-12-31T07:59:30.543Z,80.25
2022-12-31T08:02:13.719Z,80.27
2022-12-31T08:04:50.981Z,80.41
2022-12-31T08:07:42.140Z,80.19
2022-12-31T08:10:33.067Z,80.34
2022-12-31T08:13:03.543Z,80.57
2022-12-31T08:15:30.920Z,80.33
2022-12-31T08:17:57.825Z,80.35
2022-12-31T08:20:26.847Z,80.43
2022-12-31T08:23:25.756Z,80.30
2022-12-31T08:26:04.805Z,80.31
2022-12-31T08:28:53.230Z,80.30
2022-12-31T08:31:26.022Z,80.27
2022-12-31T08:34:05.558Z,80.34
2022-12-31T08:36:32.509Z,80.36
2022-12-31T08:39:16.943Z,80.38
2022-12-31T08:41:45.079Z,80.48
2022-12-31T08:44:24.667Z,80.54
2022-12-31T08:46:59.722Z,80.57
2022-12-31T08:49:28.406Z,80.71
2022-12-31T08:51:55.136Z,80.74
2022-12-31T08:54:21.755Z,80.81
2022-12-31T08:56:56.305Z,80.82
2022-12-31T08:59:33.792Z,80.74
2022-12-31T09:02:18.883Z,80.79
2022-12-31T09:05:03.542Z,80.72
2022-12-31T09:07:41.642Z,80.86
2022-12-31T09:10:20.760Z,80.77
2022-12-31T09:13:15.237Z,81.02
2022-12-31T09:15:47.435Z,81.07
2022-12-31T09:18:14.871Z,81.19
2022-12-31T09:20:43.508Z,81.06
2022-12-31T09:23:12.227Z,81.28
2022-12-31T09:26:13.366Z,81.11
2022-12-31T09:28:45.883Z,81.07
2022-12-31T09:31:32.618Z,80.96
2022-12-31T09:34:11.383Z,81.11
2022-12-31T09:36:44.062Z,81.32
2022-12-31T09:39:35.782Z,81.21
2022-12-31T09:42:20.504Z,81.32
2022-12-31T09:45:20.297Z,81.35
2022-12-31T09:48:19.244Z,81.48
2022-12-31T09:51:20.390Z,81.17
2022-12-31T09:54:20.090Z,81.42
2022-12-31T09:57:03.385Z,81.39
2022-12-31T09:59:46.227Z,81.23
2022-12-31T10:02:30.858Z,81.38
2022-12-31T10:05:09.645Z,81.24
2022-12-31T10:08:33.229Z,81.47
2022-12-31T10:11:25.643Z,81.69
2022-12-31T10:14:19.897Z,81.39
2022-12-31T10:17:06.874Z,81.54
2022-12-31T10:19:47.143Z,81.59
2022-12-31T10:22:32.295Z,81.78
2022-12-31T10:25:38.476Z,81.67
2022-12-31T10:28:21.837Z,81.60
2022-12-31T10:31:06.935Z,81.55
2022-12-31T10:33:42.542Z,81.70
2022-12-31T10:36:20.764Z,81.82
2022-12-31T10:38:55.190Z,81.81
2022-12-31T10:42:04.792Z,81.81
2022-12-31T10:44:36.930Z,81.91
2022-12-31T10:47:12.444Z,81.92
2022-12-31T10:50:15.942Z,81.87
2022-12-31T10:53:18.046Z,82.03
2022-12-31T10:56:22.568Z,82.13
2022-12-31T10:59:16.589Z,82.06
2022-12-31T11:02:16.846Z,82.36
2022-12-31T11:05:11.820Z,82.61
2022-12-31T11:07:51.665Z,82.99
2022-12-31T11:11:02.711Z,82.59
2022-12-31T11:13:59.728Z,82.77
2022-12-31T11:16:44.665Z,82.77
2022-12-31T11:19:21.722Z,82.58
2022-12-31T11:22:06.837Z,82.94
2022-12-31T11:24:42.261Z,82.83
2022-12-31T11:27:38.842Z,82.97
2022-12-31T11:30:48.797Z,82.95
2022-12-31T11:33:31.316Z,83.03
2022-12-31T11:36:35.391Z,82.91
2022-12-31T11:39:31.288Z,83.01
2022-12-31T11:42:15.622Z,82.99
2022-12-31T11:45:04.208Z,82.90
2022-12-31T11:51:02.319Z,83.14
2022-12-31T11:53:51.736Z,83.49
2022-12-31T11:56:21.138Z,83.53
2022-12-31T11:58:51.122Z,83.62
2022-12-31T12:01:51.444Z,83.74
2022-12-31T12:04:18.218Z,83.61
2022-12-31T12:06:46.019Z,85.14
2022-12-31T12:09:28.939Z,85.04
2022-12-31T12:12:02.338Z,84.88
2022-12-31T12:14:40.967Z,84.64
2022-12-31T12:17:12.408Z,84.39
2022-12-31T12:19:47.641Z,84.16
2022-12-31T12:22:21.568Z,84.18
2022-12-31T12:24:55.600Z,84.15
2022-12-31T12:27:26.480Z,83.99
2022-12-31T12:29:52.933Z,84.00
2022-12-31T12:32:24.995Z,83.97
2022-12-31T12:34:52.353Z,83.70
2022-12-31T12:37:24.827Z,83.63
2022-12-31T12:40:21.630Z,83.55
2022-12-31T12:42:49.538Z,83.48
2022-12-31T12:45:19.031Z,83.50
2022-12-31T12:47:48.215Z,83.36
2022-12-31T12:50:21.809Z,83.29
2022-12-31T12:52:55.108Z,83.45
2022-12-31T12:55:46.303Z,83.52
2022-12-31T12:58:32.262Z,83.23
2022-12-31T13:01:24.352Z,83.33
2022-12-31T13:04:35.456Z,83.13
2022-12-31T13:07:17.463Z,83.19
2022-12-31T13:10:06.873Z,83.38
2022-12-31T13:16:13.318Z,83.46
2022-12-31T13:19:19.293Z,83.77
2022-12-31T13:21:56.577Z,83.31
2022-12-31T13:24:37.987Z,83.32
2022-12-31T13:27:29.452Z,83.13
2022-12-31T13:30:01.496Z,83.25
2022-12-31T13:32:42.381Z,83.10
2022-12-31T13:35:23.488Z,83.30
2022-12-31T13:37:53.092Z,83.21
2022-12-31T13:40:34.844Z,83.16
2022-12-31T13:43:08.373Z,83.29
2022-12-31T13:45:41.748Z,83.16
2022-12-31T13:48:22.472Z,83.03
2022-12-31T13:51:15.874Z,82.98
2022-12-31T13:53:54.785Z,83.03
2022-12-31T13:56:27.189Z,83.02
2022-12-31T13:59:01.439Z,83.23
2022-12-31T14:01:43.014Z,83.20
2022-12-31T14:04:18.289Z,83.54
2022-12-31T14:06:58.468Z,83.64
2022-12-31T14:09:28.153Z,83.70
2022-12-31T14:12:22.355Z,83.65
2022-12-31T14:15:04.531Z,83.78
2022-12-31T14:17:42.488Z,83.84
2022-12-31T14:20:29.107Z,83.85
2022-12-31T14:23:18.117Z,83.70
2022-12-31T14:25:52.476Z,83.68
2022-12-31T14:28:25.374Z,83.73
2022-12-31T14:30:58.826Z,83.59
2022-12-31T14:33:44.614Z,83.37
2022-12-31T14:36:14.027Z,83.72
2022-12-31T14:38:58.858Z,83.56
2022-12-31T14:41:43.169Z,83.56
2022-12-31T14:44:43.546Z,83.44
2022-12-31T14:47:25.205Z,83.49
2022-12-31T14:49:57.660Z,83.45
2022-12-31T14:52:54.781Z,83.53
2022-12-31T14:55:35.583Z,83.46
2022-12-31T15:01:19.841Z,83.43
2022-12-31T15:03:46.645Z,83.64
2022-12-31T15:06:47.940Z,83.58
2022-12-31T15:09:50.406Z,83.54
2022-12-31T15:12:29.182Z,83.61
2022-12-31T15:15:25.056Z,83.83
2022-12-31T15:18:30.224Z,83.79
2022-12-31T15:21:19.783Z,83.79
2022-12-31T15:23:46.712Z,83.89
2022-12-31T15:26:25.078Z,83.75
2022-12-31T15:29:01.950Z,83.69
2022-12-31T15:31:28.925Z,83.65
2022-12-31T15:34:00.077Z,83.88
2022-12-31T15:36:35.639Z,83.77
2022-12-31T15:39:11.328Z,83.92
2022-12-31T15:44:48.343Z,83.83
2022-12-31T15:47:29.444Z,83.46
2022-12-31T15:49:59.197Z,83.56
2022-12-31T15:52:35.169Z,83.58
2022-12-31T15:55:05.891Z,83.67
2022-12-31T15:57:51.450Z,83.64
2022-12-31T16:00:21.031Z,83.80
2022-12-31T16:02:50.970Z,83.61
2022-12-31T16:05:19.411Z,83.63
2022-12-31T16:07:47.145Z,83.69
2022-12-31T16:10:22.699Z,83.52
2022-12-31T16:12:49.640Z,83.77
2022-12-31T16:15:27.027Z,83.72
2022-12-31T16:18:03.024Z,83.76
2022-12-31T16:20:31.489Z,83.71
2022-12-31T16:23:02.228Z,83.88
2022-12-31T16:25:32.262Z,83.85
2022-12-31T16:28:02.004Z,83.86
2022-12-31T16:30:30.706Z,83.70
2022-12-31T16:33:06.149Z,83.73
2022-12-31T16:35:37.009Z,83.63
2022-12-31T16:38:30.697Z,83.45
2022-12-31T16:41:03.150Z,83.56
2022-12-31T16:43:41.924Z,83.49
2022-12-31T16:46:13.927Z,83.68
2022-12-31T16:48:41.200Z,83.68
2022-12-31T16:51:17.872Z,83.59
2022-12-31T16:53:44.900Z,83.56
2022-12-31T16:56:20.672Z,83.55
2022-12-31T16:58:47.199Z,83.43
2022-12-31T17:01:29.908Z,83.20
2022-12-31T17:04:01.311Z,83.47
2022-12-31T17:06:28.425Z,83.54
2022-12-31T17:08:59.446Z,83.38
2022-12-31T17:11:39.058Z,83.28
2022-12-31T17:14:05.442Z,83.46
2022-12-31T17:16:33.872Z,83.27
2022-12-31T17:19:00.421Z,83.28
2022-12-31T17:21:29.958Z,83.51
2022-12-31T17:24:05.823Z,83.18
2022-12-31T17:26:34.656Z,83.41
2022-12-31T17:29:02.716Z,83.25
2022-12-31T17:31:38.729Z,83.25
2022-12-31T17:34:14.271Z,83.15
2022-12-31T17:36:54.184Z,83.13
2022-12-31T17:39:22.735Z,83.14
2022-12-31T17:41:51.534Z,83.16
2022-12-31T17:44:25.682Z,83.15
2022-12-31T17:46:52.627Z,83.27
2022-12-31T17:49:27.108Z,83.30
2022-12-31T17:51:53.605Z,83.38
2022-12-31T17:54:20.113Z,83.41
2022-12-31T17:56:47.212Z,83.32
2022-12-31T17:59:29.521Z,83.02
2022-12-31T18:02:02.131Z,82.90
2022-12-31T18:04:28.770Z,83.15
2022-12-31T18:06:55.518Z,83.05
2022-12-31T18:09:22.016Z,83.10
2022-12-31T18:11:48.473Z,83.16
2022-12-31T18:14:16.337Z,82.89
2022-12-31T18:16:49.300Z,82.93
2022-12-31T18:19:45.863Z,82.84
2022-12-31T18:22:02.871Z,82.77
2022-12-31T18:24:29.520Z,82.93
2022-12-31T18:26:55.919Z,82.78
2022-12-31T18:29:22.471Z,82.72
2022-12-31T18:31:50.078Z,82.79
2022-12-31T18:34:17.972Z,82.62
2022-12-31T18:36:44.549Z,82.72
2022-12-31T18:39:11.167Z,82.74
2022-12-31T18:41:48.910Z,82.57
2022-12-31T18:44:16.155Z,82.60
2022-12-31T18:46:42.977Z,82.75
2022-12-31T18:49:09.740Z,82.63
2022-12-31T18:51:36.260Z,82.54
2022-12-31T18:54:03.517Z,82.66
2022-12-31T18:56:30.102Z,82.61
2022-12-31T18:58:56.670Z,82.61
2022-12-31T19:01:35.581Z,82.44
2022-12-31T19:04:22.851Z,82.47
2022-12-31T19:06:53.354Z,82.67
2022-12-31T19:09:44.258Z,82.39
2022-12-31T19:12:06.387Z,82.39
2022-12-31T19:14:32.813Z,82.52
2022-12-31T19:19:25.130Z,82.37
2022-12-31T19:21:51.664Z,82.34
2022-12-31T19:24:24.407Z,82.44
2022-12-31T19:26:50.850Z,82.35
2022-12-31T19:29:23.517Z,82.23
2022-12-31T19:31:50.591Z,82.42
2022-12-31T19:34:17.227Z,82.38
2022-12-31T19:36:44.198Z,82.49
2022-12-31T19:39:16.854Z,82.17
2022-12-31T19:41:43.739Z,82.25
2022-12-31T19:44:18.079Z,82.14
2022-12-31T19:46:46.258Z,82.13
2022-12-31T19:49:13.982Z,82.25
2022-12-31T19:51:41.203Z,82.34
2022-12-31T19:54:07.981Z,82.37
2022-12-31T19:56:34.584Z,82.40
2022-12-31T19:59:05.763Z,82.20
2022-12-31T20:01:32.345Z,82.31
2022-12-31T20:03:58.866Z,82.27
2022-12-31T20:06:25.892Z,82.16
2022-12-31T20:08:52.357Z,82.24
2022-12-31T20:11:21.684Z,81.98
2022-12-31T20:13:49.458Z,82.25
2022-12-31T20:16:18.725Z,82.17
2022-12-31T20:18:47.066Z,81.97
2022-12-31T20:21:20.000Z,82.02
2022-12-31T20:23:48.062Z,81.96
2022-12-31T20:26:14.909Z,82.02
2022-12-31T20:28:41.496Z,82.03
2022-12-31T20:31:10.105Z,81.94
2022-12-31T20:33:37.225Z,81.86
2022-12-31T20:36:05.427Z,81.74
2022-12-31T20:38:32.119Z,81.63
2022-12-31T20:41:05.866Z,81.59
2022-12-31T20:43:34.135Z,81.80
2022-12-31T20:46:15.787Z,81.50
2022-12-31T20:48:44.363Z,81.63
2022-12-31T20:51:11.891Z,81.64
2022-12-31T20:53:38.590Z,81.69
2022-12-31T20:56:06.369Z,81.65
2022-12-31T20:58:33.450Z,81.58
2022-12-31T21:01:00.204Z,81.63
2022-12-31T21:04:03.049Z,81.54
2022-12-31T21:06:14.233Z,81.57
2022-12-31T21:08:41.372Z,81.57
2022-12-31T21:11:27.065Z,81.52
2022-12-31T21:13:54.200Z,81.23
2022-12-31T21:16:20.621Z,81.41
2022-12-31T21:18:47.180Z,81.47
2022-12-31T21:21:13.829Z,81.16
2022-12-31T21:23:40.493Z,81.31
2022-12-31T21:26:07.157Z,81.24
2022-12-31T21:28:33.925Z,81.15
2022-12-31T21:31:02.667Z,80.99
2022-12-31T21:33:29.259Z,81.00
2022-12-31T21:35:58.626Z,80.94
2022-12-31T21:38:29.147Z,81.16
2022-12-31T21:40:55.666Z,81.01
2022-12-31T21:43:22.139Z,80.97
2022-12-31T21:45:59.945Z,80.85
2022-12-31T21:48:26.435Z,80.99
2022-12-31T21:50:55.197Z,80.89
2022-12-31T21:53:31.913Z,80.80
2022-12-31T21:56:08.509Z,80.75
2022-12-31T21:58:43.236Z,80.59
2022-12-31T22:01:35.444Z,80.32
2022-12-31T22:04:02.001Z,80.42
2022-12-31T22:06:28.748Z,80.49
2022-12-31T22:08:56.829Z,80.38
2022-12-31T22:11:26.443Z,80.22
2022-12-31T22:13:53.814Z,80.15
2022-12-31T22:16:21.156Z,80.20
2022-12-31T22:18:48.403Z,79.92
2022-12-31T22:21:20.056Z,80.21
2022-12-31T22:23:49.539Z,79.74
2022-12-31T22:26:17.739Z,79.58
2022-12-31T22:28:45.391Z,79.66
2022-12-31T22:31:18.171Z,79.35
2022-12-31T22:33:44.888Z,79.41
2022-12-31T22:36:17.270Z,79.38
2022-12-31T22:38:44.731Z,79.41
2022-12-31T22:41:13.755Z,79.30
2022-12-31T22:43:43.045Z,79.08
2022-12-31T22:46:18.930Z,78.69
2022-12-31T22:48:46.106Z,78.80
2022-12-31T22:51:13.840Z,78.49
2022-12-31T22:53:41.442Z,78.67
2022-12-31T22:56:09.235Z,78.53
2022-12-31T22:58:36.428Z,78.44
2022-12-31T23:01:07.873Z,78.49
2022-12-31T23:03:34.476Z,78.20
2022-12-31T23:06:00.957Z,78.17
2022-12-31T23:08:27.598Z,78.33
2022-12-31T23:11:00.705Z,78.23
2022-12-31T23:13:50.992Z,78.06
2022-12-31T23:16:37.863Z,78.18
2022-12-31T23:19:23.873Z,78.18
2022-12-31T23:22:08.791Z,78.13
2022-12-31T23:24:35.565Z,78.49
2022-12-31T23:27:02.058Z,77.93
2022-12-31T23:29:28.484Z,77.55
2022-12-31T23:31:55.145Z,77.50
2022-12-31T23:34:21.695Z,77.37
2022-12-31T23:36:48.192Z,77.82
2022-12-31T23:39:14.983Z,77.50
2022-12-31T23:41:41.385Z,77.50
2022-12-31T23:44:07.918Z,77.49
2022-12-31T23:46:34.440Z,77.65
2022-12-31T23:49:01.009Z,77.53
2022-12-31T23:51:27.545Z,77.41
2022-12-31T23:53:53.972Z,77.30
2022-12-31T23:56:23.671Z,77.47
2022-12-31T23:58:58.012Z,77.34
